sensor_id;sensor_type;location;lat;lon;timestamp;pressure;altitude;pressure_sealevel;temperature;humidity
67345;BME280;54230;52.402;6.276;2023-06-24T00:00:00;102440.00000000001;;;21.4;62.3
67345;BME280;54230;52.402;6.276;2023-06-24T00:05:00;102430.0;;;21.2;63.3
67345;BME280;54230;52.402;6.276;2023-06-24T00:10:00;102440.00000000001;;;21.1;63.7
67345;BME280;54230;52.402;6.276;2023-06-24T00:15:00;102450.0;;;21.0;64.4
67345;BME280;54230;52.402;6.276;2023-06-24T00:20:00;102450.0;;;20.9;64.7
67345;BME280;54230;52.402;6.276;2023-06-24T00:25:00;102440.00000000001;;;20.8;64.5
67345;BME280;54230;52.402;6.276;2023-06-24T00:30:00;102440.00000000001;;;20.8;64.5
67345;BME280;54230;52.402;6.276;2023-06-24T00:35:00;102450.0;;;20.6;65.3
67345;BME280;54230;52.402;6.276;2023-06-24T00:40:00;102450.0;;;20.5;65.7
67345;BME280;54230;52.402;6.276;2023-06-24T00:45:00;102450.0;;;20.4;66.6
67345;BME280;54230;52.402;6.276;2023-06-24T00:50:00;102450.0;;;20.4;65.9
67345;BME280;54230;52.402;6.276;2023-06-24T00:55:00;102450.0;;;20.2;67.0
67345;BME280;54230;52.402;6.276;2023-06-24T01:00:00;102450.0;;;20.0;68.2
67345;BME280;54230;52.402;6.276;2023-06-24T01:05:00;102459.99999999999;;;20.0;67.8
67345;BME280;54230;52.402;6.276;2023-06-24T01:10:00;102450.0;;;20.0;68.3
67345;BME280;54230;52.402;6.276;2023-06-24T01:15:03;102450.0;;;20.0;68.0
67345;BME280;54230;52.402;6.276;2023-06-24T01:20:03;102440.00000000001;;;20.0;67.7
67345;BME280;54230;52.402;6.276;2023-06-24T01:25:07;102440.00000000001;;;20.1;67.4
67345;BME280;54230;52.402;6.276;2023-06-24T01:30:15;102440.00000000001;;;20.1;68.2
67345;BME280;54230;52.402;6.276;2023-06-24T01:35:02;102430.0;;;20.0;67.8
67345;BME280;54230;52.402;6.276;2023-06-24T01:40:04;102430.0;;;20.1;67.8
67345;BME280;54230;52.402;6.276;2023-06-24T01:45:01;102420.0;;;20.1;67.2
67345;BME280;54230;52.402;6.276;2023-06-24T01:50:02;102420.0;;;20.0;67.2
67345;BME280;54230;52.402;6.276;2023-06-24T01:55:01;102420.0;;;19.8;68.4
67345;BME280;54230;52.402;6.276;2023-06-24T02:00:01;102420.0;;;19.8;68.6
67345;BME280;54230;52.402;6.276;2023-06-24T02:05:01;102420.0;;;19.6;69.2
67345;BME280;54230;52.402;6.276;2023-06-24T02:10:01;102420.0;;;19.6;69.0
67345;BME280;54230;52.402;6.276;2023-06-24T02:15:01;102420.0;;;19.3;70.1
67345;BME280;54230;52.402;6.276;2023-06-24T02:20:01;102420.0;;;19.4;70.1
67345;BME280;54230;52.402;6.276;2023-06-24T02:25:01;102420.0;;;19.4;69.6
67345;BME280;54230;52.402;6.276;2023-06-24T02:30:00;102409.99999999999;;;19.4;69.8
67345;BME280;54230;52.402;6.276;2023-06-24T02:35:00;102420.0;;;19.4;69.9
67345;BME280;54230;52.402;6.276;2023-06-24T02:40:01;102409.99999999999;;;19.4;69.4
67345;BME280;54230;52.402;6.276;2023-06-24T02:45:01;102420.0;;;19.5;68.6
67345;BME280;54230;52.402;6.276;2023-06-24T02:50:01;102420.0;;;19.4;68.9
67345;BME280;54230;52.402;6.276;2023-06-24T02:55:00;102409.99999999999;;;19.2;70.0
67345;BME280;54230;52.402;6.276;2023-06-24T03:00:00;102409.99999999999;;;19.4;69.5
67345;BME280;54230;52.402;6.276;2023-06-24T03:05:00;102409.99999999999;;;19.4;69.1
67345;BME280;54230;52.402;6.276;2023-06-24T03:10:01;102400.0;;;19.5;68.5
67345;BME280;54230;52.402;6.276;2023-06-24T03:15:00;102409.99999999999;;;19.4;69.4
67345;BME280;54230;52.402;6.276;2023-06-24T03:20:00;102409.99999999999;;;19.4;68.7
67345;BME280;54230;52.402;6.276;2023-06-24T03:25:00;102420.0;;;19.3;69.3
67345;BME280;54230;52.402;6.276;2023-06-24T03:30:00;102420.0;;;19.2;69.5
67345;BME280;54230;52.402;6.276;2023-06-24T03:35:00;102420.0;;;19.2;69.9
67345;BME280;54230;52.402;6.276;2023-06-24T03:40:00;102420.0;;;19.1;70.2
67345;BME280;54230;52.402;6.276;2023-06-24T03:45:01;102420.0;;;19.1;70.1
67345;BME280;54230;52.402;6.276;2023-06-24T03:50:00;102420.0;;;19.2;69.9
67345;BME280;54230;52.402;6.276;2023-06-24T03:55:00;102430.0;;;19.2;69.8
67345;BME280;54230;52.402;6.276;2023-06-24T04:00:00;102430.0;;;19.3;69.3
67345;BME280;54230;52.402;6.276;2023-06-24T04:05:00;102430.0;;;19.5;68.1
67345;BME280;54230;52.402;6.276;2023-06-24T04:10:02;102420.0;;;19.6;67.4
67345;BME280;54230;52.402;6.276;2023-06-24T04:15:01;102409.99999999999;;;19.6;67.4
67345;BME280;54230;52.402;6.276;2023-06-24T04:20:00;102420.0;;;19.8;67.4
67345;BME280;54230;52.402;6.276;2023-06-24T04:25:00;102420.0;;;19.9;67.0
67345;BME280;54230;52.402;6.276;2023-06-24T04:30:01;102420.0;;;20.0;67.2
67345;BME280;54230;52.402;6.276;2023-06-24T04:35:00;102420.0;;;20.0;67.3
67345;BME280;54230;52.402;6.276;2023-06-24T04:40:00;102420.0;;;20.1;67.9
67345;BME280;54230;52.402;6.276;2023-06-24T04:45:00;102430.0;;;20.1;67.9
67345;BME280;54230;52.402;6.276;2023-06-24T04:50:00;102430.0;;;20.2;68.1
67345;BME280;54230;52.402;6.276;2023-06-24T04:55:00;102430.0;;;20.3;67.9
67345;BME280;54230;52.402;6.276;2023-06-24T05:00:00;102440.00000000001;;;20.4;67.6
67345;BME280;54230;52.402;6.276;2023-06-24T05:05:00;102440.00000000001;;;20.6;67.3
67345;BME280;54230;52.402;6.276;2023-06-24T05:10:00;102440.00000000001;;;20.8;67.2
67345;BME280;54230;52.402;6.276;2023-06-24T05:15:00;102440.00000000001;;;21.0;66.5
67345;BME280;54230;52.402;6.276;2023-06-24T05:20:00;102440.00000000001;;;21.1;65.9
67345;BME280;54230;52.402;6.276;2023-06-24T05:25:00;102430.0;;;21.3;65.2
67345;BME280;54230;52.402;6.276;2023-06-24T05:30:00;102430.0;;;21.5;64.4
67345;BME280;54230;52.402;6.276;2023-06-24T05:35:00;102430.0;;;21.6;64.1
67345;BME280;54230;52.402;6.276;2023-06-24T05:40:01;102440.00000000001;;;21.7;63.9
67345;BME280;54230;52.402;6.276;2023-06-24T05:45:00;102440.00000000001;;;21.9;63.3
67345;BME280;54230;52.402;6.276;2023-06-24T05:50:00;102440.00000000001;;;22.0;63.1
67345;BME280;54230;52.402;6.276;2023-06-24T05:55:00;102440.00000000001;;;22.1;63.5
67345;BME280;54230;52.402;6.276;2023-06-24T06:00:00;102440.00000000001;;;22.2;62.4
67345;BME280;54230;52.402;6.276;2023-06-24T06:05:00;102440.00000000001;;;22.2;61.4
67345;BME280;54230;52.402;6.276;2023-06-24T06:10:00;102440.00000000001;;;22.4;60.9
67345;BME280;54230;52.402;6.276;2023-06-24T06:15:00;102430.0;;;22.5;60.5
67345;BME280;54230;52.402;6.276;2023-06-24T06:20:00;102440.00000000001;;;22.6;60.0
67345;BME280;54230;52.402;6.276;2023-06-24T06:25:00;102430.0;;;22.8;59.3
67345;BME280;54230;52.402;6.276;2023-06-24T06:30:00;102430.0;;;23.0;58.6
67345;BME280;54230;52.402;6.276;2023-06-24T06:35:00;102430.0;;;23.1;58.2
67345;BME280;54230;52.402;6.276;2023-06-24T06:40:00;102430.0;;;23.2;57.2
67345;BME280;54230;52.402;6.276;2023-06-24T06:45:00;102430.0;;;23.5;55.9
67345;BME280;54230;52.402;6.276;2023-06-24T06:50:00;102430.0;;;23.7;55.7
67345;BME280;54230;52.402;6.276;2023-06-24T06:55:00;102430.0;;;23.8;55.2
67345;BME280;54230;52.402;6.276;2023-06-24T07:00:00;102440.00000000001;;;23.9;54.6
67345;BME280;54230;52.402;6.276;2023-06-24T07:05:00;102440.00000000001;;;23.8;55.5
67345;BME280;54230;52.402;6.276;2023-06-24T07:10:00;102450.0;;;23.8;55.9
67345;BME280;54230;52.402;6.276;2023-06-24T07:15:00;102450.0;;;24.0;56.1
67345;BME280;54230;52.402;6.276;2023-06-24T07:20:00;102450.0;;;24.0;56.3
67345;BME280;54230;52.402;6.276;2023-06-24T07:25:00;102450.0;;;24.1;55.3
67345;BME280;54230;52.402;6.276;2023-06-24T07:30:00;102450.0;;;24.3;54.4
67345;BME280;54230;52.402;6.276;2023-06-24T07:35:00;102450.0;;;24.3;54.2
67345;BME280;54230;52.402;6.276;2023-06-24T07:40:00;102450.0;;;24.5;52.2
67345;BME280;54230;52.402;6.276;2023-06-24T07:45:00;102450.0;;;24.8;51.4
67345;BME280;54230;52.402;6.276;2023-06-24T07:50:00;102440.00000000001;;;25.0;51.3
67345;BME280;54230;52.402;6.276;2023-06-24T07:55:00;102440.00000000001;;;25.3;51.4
67345;BME280;54230;52.402;6.276;2023-06-24T08:00:00;102440.00000000001;;;25.9;49.6
67345;BME280;54230;52.402;6.276;2023-06-24T08:05:00;102450.0;;;26.0;47.3
67345;BME280;54230;52.402;6.276;2023-06-24T08:10:00;102440.00000000001;;;26.2;47.3
67345;BME280;54230;52.402;6.276;2023-06-24T08:15:00;102440.00000000001;;;26.1;46.6
67345;BME280;54230;52.402;6.276;2023-06-24T08:20:00;102440.00000000001;;;25.7;44.3
67345;BME280;54230;52.402;6.276;2023-06-24T08:25:00;102430.0;;;25.6;46.1
67345;BME280;54230;52.402;6.276;2023-06-24T08:30:00;102440.00000000001;;;25.9;45.5
67345;BME280;54230;52.402;6.276;2023-06-24T08:35:00;102440.00000000001;;;26.0;44.8
67345;BME280;54230;52.402;6.276;2023-06-24T08:40:00;102440.00000000001;;;26.1;42.1
67345;BME280;54230;52.402;6.276;2023-06-24T08:45:00;102440.00000000001;;;26.2;40.1
67345;BME280;54230;52.402;6.276;2023-06-24T08:50:03;102430.0;;;25.9;40.4
67345;BME280;54230;52.402;6.276;2023-06-24T08:55:01;102430.0;;;26.1;40.4
67345;BME280;54230;52.402;6.276;2023-06-24T09:00:00;102430.0;;;26.1;39.6
67345;BME280;54230;52.402;6.276;2023-06-24T09:05:00;102430.0;;;26.0;36.8
67345;BME280;54230;52.402;6.276;2023-06-24T09:10:00;102430.0;;;26.0;36.5
67345;BME280;54230;52.402;6.276;2023-06-24T09:15:01;102430.0;;;26.1;37.3
67345;BME280;54230;52.402;6.276;2023-06-24T09:20:04;102430.0;;;26.0;38.7
67345;BME280;54230;52.402;6.276;2023-06-24T09:25:01;102430.0;;;26.2;39.3
67345;BME280;54230;52.402;6.276;2023-06-24T09:30:00;102430.0;;;26.6;39.1
67345;BME280;54230;52.402;6.276;2023-06-24T09:35:02;102430.0;;;26.7;36.4
67345;BME280;54230;52.402;6.276;2023-06-24T09:40:00;102420.0;;;26.7;37.0
67345;BME280;54230;52.402;6.276;2023-06-24T09:45:04;102409.99999999999;;;26.8;36.4
67345;BME280;54230;52.402;6.276;2023-06-24T09:50:00;102409.99999999999;;;27.0;37.5
67345;BME280;54230;52.402;6.276;2023-06-24T09:55:01;102400.0;;;27.0;37.6
67345;BME280;54230;52.402;6.276;2023-06-24T10:00:01;102400.0;;;27.0;37.7
67345;BME280;54230;52.402;6.276;2023-06-24T10:05:00;102400.0;;;26.7;38.4
67345;BME280;54230;52.402;6.276;2023-06-24T10:10:02;102400.0;;;27.2;38.5
67345;BME280;54230;52.402;6.276;2023-06-24T10:15:00;102400.0;;;27.4;38.1
67345;BME280;54230;52.402;6.276;2023-06-24T10:20:03;102400.0;;;27.0;37.3
67345;BME280;54230;52.402;6.276;2023-06-24T10:25:01;102400.0;;;27.4;38.4
67345;BME280;54230;52.402;6.276;2023-06-24T10:30:03;102390.0;;;27.6;37.1
67345;BME280;54230;52.402;6.276;2023-06-24T10:35:00;102390.0;;;27.7;37.0
67345;BME280;54230;52.402;6.276;2023-06-24T10:40:01;102390.0;;;27.5;37.0
67345;BME280;54230;52.402;6.276;2023-06-24T10:45:02;102380.0;;;27.7;37.0
67345;BME280;54230;52.402;6.276;2023-06-24T10:50:00;102370.0;;;27.7;36.3
67345;BME280;54230;52.402;6.276;2023-06-24T10:55:00;102370.0;;;27.6;37.3
67345;BME280;54230;52.402;6.276;2023-06-24T11:00:02;102360.0;;;27.7;37.8
67345;BME280;54230;52.402;6.276;2023-06-24T11:05:01;102360.0;;;28.0;36.8
67345;BME280;54230;52.402;6.276;2023-06-24T11:10:02;102360.0;;;28.0;37.6
67345;BME280;54230;52.402;6.276;2023-06-24T11:15:02;102360.0;;;28.3;37.2
67345;BME280;54230;52.402;6.276;2023-06-24T11:20:01;102360.0;;;28.6;37.1
67345;BME280;54230;52.402;6.276;2023-06-24T11:25:00;102360.0;;;28.3;37.0
67345;BME280;54230;52.402;6.276;2023-06-24T11:30:00;102360.0;;;28.4;37.1
67345;BME280;54230;52.402;6.276;2023-06-24T11:35:00;102350.0;;;29.0;36.4
67345;BME280;54230;52.402;6.276;2023-06-24T11:40:01;102340.0;;;29.7;35.4
67345;BME280;54230;52.402;6.276;2023-06-24T11:45:00;102340.0;;;29.5;35.5
67345;BME280;54230;52.402;6.276;2023-06-24T11:50:00;102340.0;;;30.1;34.8
67345;BME280;54230;52.402;6.276;2023-06-24T11:55:00;102340.0;;;29.6;35.6
67345;BME280;54230;52.402;6.276;2023-06-24T12:00:00;102330.0;;;29.4;35.6
67345;BME280;54230;52.402;6.276;2023-06-24T12:05:01;102330.0;;;29.9;35.4
67345;BME280;54230;52.402;6.276;2023-06-24T12:10:00;102330.0;;;29.9;34.9
67345;BME280;54230;52.402;6.276;2023-06-24T12:15:00;102330.0;;;30.0;34.7
67345;BME280;54230;52.402;6.276;2023-06-24T12:20:00;102330.0;;;29.9;34.6
67345;BME280;54230;52.402;6.276;2023-06-24T12:25:00;102330.0;;;30.0;34.5
67345;BME280;54230;52.402;6.276;2023-06-24T12:30:00;102320.0;;;30.2;34.1
67345;BME280;54230;52.402;6.276;2023-06-24T12:35:00;102320.0;;;30.3;34.2
67345;BME280;54230;52.402;6.276;2023-06-24T12:40:00;102320.0;;;30.4;34.2
67345;BME280;54230;52.402;6.276;2023-06-24T12:45:00;102320.0;;;30.6;34.6
67345;BME280;54230;52.402;6.276;2023-06-24T12:50:00;102320.0;;;30.6;33.7
67345;BME280;54230;52.402;6.276;2023-06-24T12:55:00;102310.0;;;30.9;33.1
67345;BME280;54230;52.402;6.276;2023-06-24T13:00:00;102310.0;;;31.3;32.8
67345;BME280;54230;52.402;6.276;2023-06-24T13:05:00;102310.0;;;31.5;33.0
67345;BME280;54230;52.402;6.276;2023-06-24T13:10:00;102310.0;;;31.3;32.7
67345;BME280;54230;52.402;6.276;2023-06-24T13:15:00;102310.0;;;31.3;32.4
67345;BME280;54230;52.402;6.276;2023-06-24T13:20:00;102310.0;;;31.3;32.4
67345;BME280;54230;52.402;6.276;2023-06-24T13:25:00;102310.0;;;31.3;33.6
67345;BME280;54230;52.402;6.276;2023-06-24T13:30:00;102300.0;;;31.5;33.4
67345;BME280;54230;52.402;6.276;2023-06-24T13:35:00;102300.0;;;31.8;33.2
67345;BME280;54230;52.402;6.276;2023-06-24T13:40:00;102300.0;;;31.6;31.6
67345;BME280;54230;52.402;6.276;2023-06-24T13:45:00;102300.0;;;31.3;31.8
67345;BME280;54230;52.402;6.276;2023-06-24T13:50:00;102300.0;;;31.2;31.8
67345;BME280;54230;52.402;6.276;2023-06-24T13:55:00;102290.0;;;31.4;32.4
67345;BME280;54230;52.402;6.276;2023-06-24T14:00:00;102290.0;;;31.3;31.9
67345;BME280;54230;52.402;6.276;2023-06-24T14:05:00;102280.0;;;31.5;31.6
67345;BME280;54230;52.402;6.276;2023-06-24T14:10:00;102290.0;;;31.7;31.6
67345;BME280;54230;52.402;6.276;2023-06-24T14:15:00;102290.0;;;32.3;30.7
67345;BME280;54230;52.402;6.276;2023-06-24T14:20:00;102290.0;;;32.4;30.5
67345;BME280;54230;52.402;6.276;2023-06-24T14:25:00;102280.0;;;32.1;30.8
67345;BME280;54230;52.402;6.276;2023-06-24T14:30:00;102290.0;;;32.2;31.9
67345;BME280;54230;52.402;6.276;2023-06-24T14:35:00;102280.0;;;32.2;31.2
67345;BME280;54230;52.402;6.276;2023-06-24T14:40:00;102280.0;;;32.2;32.8
67345;BME280;54230;52.402;6.276;2023-06-24T14:45:00;102280.0;;;32.0;34.1
67345;BME280;54230;52.402;6.276;2023-06-24T14:50:00;102270.0;;;32.2;33.5
67345;BME280;54230;52.402;6.276;2023-06-24T14:55:00;102270.0;;;32.1;34.3
67345;BME280;54230;52.402;6.276;2023-06-24T15:00:00;102270.0;;;32.4;33.9
67345;BME280;54230;52.402;6.276;2023-06-24T15:05:00;102270.0;;;32.6;32.6
67345;BME280;54230;52.402;6.276;2023-06-24T15:10:00;102260.0;;;32.7;32.9
67345;BME280;54230;52.402;6.276;2023-06-24T15:15:00;102260.0;;;32.7;32.7
67345;BME280;54230;52.402;6.276;2023-06-24T15:20:00;102250.0;;;32.0;34.0
67345;BME280;54230;52.402;6.276;2023-06-24T15:25:00;102250.0;;;31.5;34.4
67345;BME280;54230;52.402;6.276;2023-06-24T15:30:00;102250.0;;;31.2;35.1
67345;BME280;54230;52.402;6.276;2023-06-24T15:35:02;102250.0;;;30.6;34.4
67345;BME280;54230;52.402;6.276;2023-06-24T15:40:00;102250.0;;;30.3;35.4
67345;BME280;54230;52.402;6.276;2023-06-24T15:45:00;102250.0;;;30.0;36.4
67345;BME280;54230;52.402;6.276;2023-06-24T15:50:00;102250.0;;;29.9;36.8
67345;BME280;54230;52.402;6.276;2023-06-24T15:55:00;102240.0;;;29.9;37.0
67345;BME280;54230;52.402;6.276;2023-06-24T16:00:00;102240.0;;;29.9;37.9
67345;BME280;54230;52.402;6.276;2023-06-24T16:05:00;102240.0;;;29.9;37.8
67345;BME280;54230;52.402;6.276;2023-06-24T16:10:00;102240.0;;;29.8;38.5
67345;BME280;54230;52.402;6.276;2023-06-24T16:15:00;102230.0;;;29.7;37.9
67345;BME280;54230;52.402;6.276;2023-06-24T16:20:00;102230.0;;;29.7;37.8
67345;BME280;54230;52.402;6.276;2023-06-24T16:25:00;102230.0;;;29.7;38.1
67345;BME280;54230;52.402;6.276;2023-06-24T16:30:00;102220.0;;;29.7;38.5
67345;BME280;54230;52.402;6.276;2023-06-24T16:35:00;102220.0;;;29.6;38.4
67345;BME280;54230;52.402;6.276;2023-06-24T16:40:00;102220.0;;;29.6;38.9
67345;BME280;54230;52.402;6.276;2023-06-24T16:45:00;102210.0;;;29.6;38.9
67345;BME280;54230;52.402;6.276;2023-06-24T16:50:00;102210.0;;;29.6;39.9
67345;BME280;54230;52.402;6.276;2023-06-24T16:55:01;102210.0;;;29.5;39.9
67345;BME280;54230;52.402;6.276;2023-06-24T17:00:00;102200.0;;;29.4;40.4
67345;BME280;54230;52.402;6.276;2023-06-24T17:05:00;102200.0;;;29.3;40.5
67345;BME280;54230;52.402;6.276;2023-06-24T17:10:00;102200.0;;;29.2;41.1
67345;BME280;54230;52.402;6.276;2023-06-24T17:15:00;102200.0;;;29.2;40.5
67345;BME280;54230;52.402;6.276;2023-06-24T17:20:00;102200.0;;;29.2;40.3
67345;BME280;54230;52.402;6.276;2023-06-24T17:25:00;102200.0;;;29.1;40.5
67345;BME280;54230;52.402;6.276;2023-06-24T17:30:00;102200.0;;;29.1;40.8
67345;BME280;54230;52.402;6.276;2023-06-24T17:35:00;102200.0;;;29.1;41.2
67345;BME280;54230;52.402;6.276;2023-06-24T17:40:00;102190.0;;;29.3;40.4
67345;BME280;54230;52.402;6.276;2023-06-24T17:45:00;102190.0;;;29.3;40.0
67345;BME280;54230;52.402;6.276;2023-06-24T17:50:00;102190.0;;;29.5;40.2
67345;BME280;54230;52.402;6.276;2023-06-24T17:55:00;102190.0;;;29.5;40.2
67345;BME280;54230;52.402;6.276;2023-06-24T18:00:00;102190.0;;;29.4;40.4
67345;BME280;54230;52.402;6.276;2023-06-24T18:05:00;102180.0;;;29.5;40.7
67345;BME280;54230;52.402;6.276;2023-06-24T18:10:00;102180.0;;;29.4;40.3
67345;BME280;54230;52.402;6.276;2023-06-24T18:15:00;102180.0;;;29.4;39.8
67345;BME280;54230;52.402;6.276;2023-06-24T18:20:00;102170.0;;;29.4;39.8
67345;BME280;54230;52.402;6.276;2023-06-24T18:25:01;102170.0;;;29.2;40.2
67345;BME280;54230;52.402;6.276;2023-06-24T18:30:00;102170.0;;;29.1;40.1
67345;BME280;54230;52.402;6.276;2023-06-24T18:35:00;102170.0;;;29.0;40.5
67345;BME280;54230;52.402;6.276;2023-06-24T18:40:00;102170.0;;;28.9;41.0
67345;BME280;54230;52.402;6.276;2023-06-24T18:45:00;102160.0;;;28.9;42.2
67345;BME280;54230;52.402;6.276;2023-06-24T18:50:00;102160.0;;;28.8;42.5
67345;BME280;54230;52.402;6.276;2023-06-24T18:55:00;102160.0;;;28.8;43.2
67345;BME280;54230;52.402;6.276;2023-06-24T19:00:00;102160.0;;;28.5;43.9
67345;BME280;54230;52.402;6.276;2023-06-24T19:05:00;102150.0;;;28.2;45.2
67345;BME280;54230;52.402;6.276;2023-06-24T19:10:00;102150.0;;;28.0;45.2
67345;BME280;54230;52.402;6.276;2023-06-24T19:15:00;102150.0;;;27.9;44.7
67345;BME280;54230;52.402;6.276;2023-06-24T19:20:00;102140.0;;;27.8;45.0
67345;BME280;54230;52.402;6.276;2023-06-24T19:25:00;102150.0;;;27.7;45.0
67345;BME280;54230;52.402;6.276;2023-06-24T19:30:00;102150.0;;;27.6;45.2
67345;BME280;54230;52.402;6.276;2023-06-24T19:35:00;102150.0;;;27.5;45.3
67345;BME280;54230;52.402;6.276;2023-06-24T19:40:00;102150.0;;;27.4;46.8
67345;BME280;54230;52.402;6.276;2023-06-24T19:45:00;102150.0;;;27.3;46.1
67345;BME280;54230;52.402;6.276;2023-06-24T19:50:00;102150.0;;;27.3;45.9
67345;BME280;54230;52.402;6.276;2023-06-24T19:55:00;102160.0;;;27.2;46.6
67345;BME280;54230;52.402;6.276;2023-06-24T20:00:00;102160.0;;;26.9;47.5
67345;BME280;54230;52.402;6.276;2023-06-24T20:05:00;102160.0;;;26.6;48.1
67345;BME280;54230;52.402;6.276;2023-06-24T20:10:00;102160.0;;;26.4;49.0
67345;BME280;54230;52.402;6.276;2023-06-24T20:15:00;102150.0;;;26.2;50.3
67345;BME280;54230;52.402;6.276;2023-06-24T20:20:00;102150.0;;;26.0;52.0
67345;BME280;54230;52.402;6.276;2023-06-24T20:25:00;102150.0;;;25.9;53.1
67345;BME280;54230;52.402;6.276;2023-06-24T20:30:00;102160.0;;;25.9;52.9
67345;BME280;54230;52.402;6.276;2023-06-24T20:35:00;102160.0;;;25.8;53.2
67345;BME280;54230;52.402;6.276;2023-06-24T20:40:00;102160.0;;;25.6;53.5
67345;BME280;54230;52.402;6.276;2023-06-24T20:45:00;102150.0;;;25.4;54.4
67345;BME280;54230;52.402;6.276;2023-06-24T20:50:00;102150.0;;;25.1;55.2
67345;BME280;54230;52.402;6.276;2023-06-24T20:55:00;102150.0;;;24.8;55.4
67345;BME280;54230;52.402;6.276;2023-06-24T21:00:00;102150.0;;;24.8;55.2
67345;BME280;54230;52.402;6.276;2023-06-24T21:05:00;102150.0;;;24.8;56.7
67345;BME280;54230;52.402;6.276;2023-06-24T21:10:00;102150.0;;;24.9;57.3
67345;BME280;54230;52.402;6.276;2023-06-24T21:15:00;102150.0;;;24.8;57.0
67345;BME280;54230;52.402;6.276;2023-06-24T21:20:00;102150.0;;;24.7;57.1
67345;BME280;54230;52.402;6.276;2023-06-24T21:25:00;102160.0;;;24.7;58.1
67345;BME280;54230;52.402;6.276;2023-06-24T21:30:00;102150.0;;;24.8;58.3
67345;BME280;54230;52.402;6.276;2023-06-24T21:35:00;102150.0;;;24.9;58.1
67345;BME280;54230;52.402;6.276;2023-06-24T21:40:00;102150.0;;;24.8;57.9
67345;BME280;54230;52.402;6.276;2023-06-24T21:45:00;102150.0;;;24.9;57.3
67345;BME280;54230;52.402;6.276;2023-06-24T21:50:00;102150.0;;;24.8;57.1
67345;BME280;54230;52.402;6.276;2023-06-24T21:55:00;102150.0;;;24.8;57.4
67345;BME280;54230;52.402;6.276;2023-06-24T22:00:00;102150.0;;;24.8;56.9
67345;BME280;54230;52.402;6.276;2023-06-24T22:05:00;102150.0;;;24.8;56.9
67345;BME280;54230;52.402;6.276;2023-06-24T22:10:00;102150.0;;;24.6;56.9
67345;BME280;54230;52.402;6.276;2023-06-24T22:15:00;102140.0;;;24.2;57.7
67345;BME280;54230;52.402;6.276;2023-06-24T22:20:00;102150.0;;;24.1;58.2
67345;BME280;54230;52.402;6.276;2023-06-24T22:25:00;102140.0;;;24.1;58.0
67345;BME280;54230;52.402;6.276;2023-06-24T22:30:00;102140.0;;;23.9;58.1
67345;BME280;54230;52.402;6.276;2023-06-24T22:35:00;102150.0;;;23.8;57.9
67345;BME280;54230;52.402;6.276;2023-06-24T22:40:00;102150.0;;;23.7;57.3
67345;BME280;54230;52.402;6.276;2023-06-24T22:45:00;102150.0;;;23.7;57.1
67345;BME280;54230;52.402;6.276;2023-06-24T22:50:00;102150.0;;;23.5;57.0
67345;BME280;54230;52.402;6.276;2023-06-24T22:55:00;102150.0;;;23.5;56.3
67345;BME280;54230;52.402;6.276;2023-06-24T23:00:00;102140.0;;;23.3;56.6
67345;BME280;54230;52.402;6.276;2023-06-24T23:05:00;102140.0;;;23.4;56.6
67345;BME280;54230;52.402;6.276;2023-06-24T23:10:00;102140.0;;;23.5;55.9
67345;BME280;54230;52.402;6.276;2023-06-24T23:15:00;102130.0;;;23.3;55.8
67345;BME280;54230;52.402;6.276;2023-06-24T23:20:00;102130.0;;;23.2;56.4
67345;BME280;54230;52.402;6.276;2023-06-24T23:25:00;102130.0;;;23.3;56.4
67345;BME280;54230;52.402;6.276;2023-06-24T23:30:02;102120.0;;;23.4;55.9
67345;BME280;54230;52.402;6.276;2023-06-24T23:35:00;102120.0;;;23.3;55.9
67345;BME280;54230;52.402;6.276;2023-06-24T23:40:00;102110.0;;;23.1;56.7
67345;BME280;54230;52.402;6.276;2023-06-24T23:45:00;102110.0;;;23.0;57.0
67345;BME280;54230;52.402;6.276;2023-06-24T23:50:00;102100.0;;;23.0;57.7
67345;BME280;54230;52.402;6.276;2023-06-24T23:55:00;102100.0;;;23.1;57.4
